createdAt,value
2022-10-06T00:02:35.974Z,72.04
2022-10-06T00:05:38.266Z,71.96
2022-10-06T00:08:41.402Z,72.74
2022-10-06T00:11:43.802Z,72.70
2022-10-06T00:14:45.948Z,71.79
2022-10-06T00:17:48.162Z,72.15
2022-10-06T00:20:58.336Z,71.80
2022-10-06T00:24:00.383Z,71.86
2022-10-06T00:27:02.519Z,72.16
2022-10-06T00:30:05.938Z,71.66
2022-10-06T00:33:10.433Z,71.65
2022-10-06T00:36:12.534Z,71.36
2022-10-06T00:39:14.732Z,71.92
2022-10-06T00:42:31.534Z,72.33
2022-10-06T00:45:46.491Z,72.22
2022-10-06T00:48:52.834Z,71.71
2022-10-06T00:52:04.968Z,71.54
2022-10-06T00:55:10.594Z,71.53
2022-10-06T00:58:13.395Z,71.65
2022-10-06T01:01:15.525Z,71.81
2022-10-06T01:04:17.916Z,71.24
2022-10-06T01:07:20.091Z,71.10
2022-10-06T01:10:22.264Z,70.87
2022-10-06T01:13:24.395Z,70.62
2022-10-06T01:16:27.118Z,71.62
2022-10-06T01:20:00.205Z,71.35
2022-10-06T01:23:06.695Z,72.50
2022-10-06T01:26:10.730Z,72.55
2022-10-06T01:29:12.968Z,72.84
2022-10-06T01:32:15.182Z,73.11
2022-10-06T01:35:17.396Z,72.99
2022-10-06T01:38:20.354Z,73.84
2022-10-06T01:41:27.697Z,74.12
2022-10-06T01:44:30.127Z,74.80
2022-10-06T01:47:33.201Z,74.87
2022-10-06T01:50:35.267Z,74.98
2022-10-06T01:53:37.374Z,74.51
2022-10-06T01:56:40.312Z,75.71
2022-10-06T01:59:42.937Z,75.41
2022-10-06T02:02:45.098Z,74.68
2022-10-06T02:05:47.187Z,75.26
2022-10-06T02:08:49.352Z,75.19
2022-10-06T02:11:52.631Z,74.93
2022-10-06T02:14:54.702Z,74.69
2022-10-06T02:17:56.771Z,75.09
2022-10-06T02:21:02.539Z,75.12
2022-10-06T02:24:04.916Z,76.15
2022-10-06T02:27:08.062Z,75.80
2022-10-06T02:30:11.502Z,75.98
2022-10-06T02:33:13.637Z,76.60
2022-10-06T02:36:16.731Z,76.25
2022-10-06T02:39:19.195Z,76.60
2022-10-06T02:42:21.676Z,74.67
2022-10-06T02:45:23.755Z,74.36
2022-10-06T02:48:26.674Z,73.52
2022-10-06T02:51:32.342Z,73.64
2022-10-06T02:54:36.763Z,75.29
2022-10-06T02:57:39.380Z,74.73
2022-10-06T03:00:42.049Z,75.01
2022-10-06T03:03:44.501Z,75.80
2022-10-06T03:06:46.806Z,75.32
2022-10-06T03:09:55.319Z,75.39
2022-10-06T03:12:59.589Z,75.56
2022-10-06T03:16:04.141Z,75.19
2022-10-06T03:19:07.382Z,74.39
2022-10-06T03:22:10.621Z,73.99
2022-10-06T03:25:21.396Z,72.72
2022-10-06T03:28:23.693Z,72.79
2022-10-06T03:31:26.484Z,72.61
2022-10-06T03:34:29.036Z,72.87
2022-10-06T03:37:33.102Z,71.26
2022-10-06T03:40:35.204Z,71.80
2022-10-06T03:43:37.804Z,72.49
2022-10-06T03:46:40.984Z,73.04
2022-10-06T03:49:43.514Z,73.70
2022-10-06T03:52:51.253Z,74.35
2022-10-06T03:56:11.316Z,73.85
2022-10-06T03:59:16.456Z,73.42
2022-10-06T04:02:20.527Z,72.75
2022-10-06T04:05:22.737Z,71.43
2022-10-06T04:08:25.436Z,71.77
2022-10-06T04:11:29.974Z,72.23
2022-10-06T04:14:32.052Z,71.51
2022-10-06T04:17:35.024Z,70.84
2022-10-06T04:20:37.438Z,71.29
2022-10-06T04:23:39.914Z,70.30
2022-10-06T04:26:48.841Z,70.39
2022-10-06T04:29:52.144Z,70.98
2022-10-06T04:32:55.064Z,71.03
2022-10-06T04:36:02.259Z,71.49
2022-10-06T04:39:05.159Z,72.69
2022-10-06T04:42:08.702Z,72.44
2022-10-06T04:45:11.861Z,73.23
2022-10-06T04:48:15.630Z,72.88
2022-10-06T04:51:18.177Z,72.43
2022-10-06T04:54:20.853Z,74.36
2022-10-06T04:57:26.363Z,74.34
2022-10-06T05:00:28.879Z,74.69
2022-10-06T05:03:32.267Z,74.18
2022-10-06T05:06:39.833Z,75.27
2022-10-06T05:09:42.447Z,75.89
2022-10-06T05:12:45.304Z,76.29
2022-10-06T05:16:01.974Z,76.72
2022-10-06T05:19:08.272Z,76.55
2022-10-06T05:22:13.035Z,77.55
2022-10-06T05:25:15.631Z,77.45
2022-10-06T05:28:17.721Z,77.15
2022-10-06T05:31:22.423Z,77.76
2022-10-06T05:34:24.760Z,77.35
2022-10-06T05:37:27.129Z,77.50
2022-10-06T05:40:29.725Z,77.78
2022-10-06T05:43:32.574Z,77.48
2022-10-06T05:46:35.130Z,77.66
2022-10-06T05:49:37.183Z,77.36
2022-10-06T05:52:40.518Z,77.06
2022-10-06T05:55:43.492Z,77.73
2022-10-06T05:58:51.367Z,77.51
2022-10-06T06:01:54.429Z,77.48
2022-10-06T06:05:05.463Z,76.97
2022-10-06T06:08:07.672Z,78.10
2022-10-06T06:11:10.086Z,77.60
2022-10-06T06:14:17.752Z,78.26
2022-10-06T06:17:20.459Z,77.71
2022-10-06T06:20:22.676Z,77.59
2022-10-06T06:23:25.254Z,77.84
2022-10-06T06:26:32.890Z,77.93
2022-10-06T06:29:34.915Z,77.49
2022-10-06T06:32:37.155Z,77.30
2022-10-06T06:35:40.025Z,77.49
2022-10-06T06:38:43.714Z,77.84
2022-10-06T06:41:46.240Z,77.73
2022-10-06T06:45:09.347Z,77.10
2022-10-06T06:48:16.120Z,76.71
2022-10-06T06:51:22.997Z,77.35
2022-10-06T06:54:27.698Z,77.14
2022-10-06T06:57:35.685Z,76.99
2022-10-06T07:00:39.007Z,76.90
2022-10-06T07:03:57.009Z,76.32
2022-10-06T07:06:59.895Z,75.97
2022-10-06T07:10:05.609Z,76.37
2022-10-06T07:13:11.566Z,75.76
2022-10-06T07:16:34.504Z,76.37
2022-10-06T07:19:55.561Z,75.92
2022-10-06T07:23:16.503Z,74.46
2022-10-06T07:26:18.668Z,74.07
2022-10-06T07:29:21.780Z,74.47
2022-10-06T07:32:30.783Z,74.07
2022-10-06T07:35:33.123Z,74.51
2022-10-06T07:38:36.314Z,74.05
2022-10-06T07:41:38.535Z,73.02
2022-10-06T07:44:44.090Z,73.65
2022-10-06T07:47:46.156Z,73.78
2022-10-06T07:50:51.579Z,74.60
2022-10-06T07:53:58.616Z,74.70
2022-10-06T07:57:08.111Z,73.90
2022-10-06T08:00:17.104Z,72.87
2022-10-06T08:03:20.036Z,71.52
2022-10-06T08:06:23.677Z,71.40
2022-10-06T08:09:25.751Z,71.25
2022-10-06T08:12:33.971Z,70.34
2022-10-06T08:15:36.113Z,70.57
2022-10-06T08:18:46.559Z,69.96
2022-10-06T08:21:49.044Z,69.63
2022-10-06T08:25:08.630Z,69.23
2022-10-06T08:28:11.609Z,69.23
2022-10-06T08:31:15.766Z,69.28
2022-10-06T08:34:18.955Z,68.26
2022-10-06T08:37:26.830Z,69.05
2022-10-06T08:40:29.218Z,67.33
2022-10-06T08:43:31.305Z,67.87
2022-10-06T08:46:40.566Z,68.77
2022-10-06T08:49:47.826Z,68.59
2022-10-06T08:53:21.718Z,68.74
2022-10-06T08:56:27.133Z,67.33
2022-10-06T08:59:32.027Z,67.08
2022-10-06T09:02:41.735Z,67.04
2022-10-06T09:05:43.853Z,65.49
2022-10-06T09:09:13.786Z,65.40
2022-10-06T09:12:43.574Z,64.74
2022-10-06T09:15:51.033Z,65.71
2022-10-06T09:19:08.337Z,63.58
2022-10-06T09:22:20.814Z,62.81
2022-10-06T09:25:28.059Z,61.65
2022-10-06T09:28:30.169Z,61.54
2022-10-06T09:31:50.511Z,59.90
2022-10-06T09:35:02.625Z,61.69
2022-10-06T09:38:08.559Z,62.51
2022-10-06T09:41:11.827Z,61.67
2022-10-06T09:44:29.370Z,61.26
2022-10-06T09:47:35.269Z,62.31
2022-10-06T09:50:37.341Z,61.64
2022-10-06T09:53:40.252Z,61.38
2022-10-06T09:56:43.494Z,61.05
2022-10-06T09:59:46.533Z,61.34
2022-10-06T10:02:48.642Z,60.01
2022-10-06T10:05:51.447Z,60.94
2022-10-06T10:09:21.854Z,60.63
2022-10-06T10:12:30.185Z,60.58
2022-10-06T10:15:58.467Z,59.04
2022-10-06T10:19:02.073Z,59.04
2022-10-06T10:22:04.314Z,58.48
2022-10-06T10:25:28.404Z,57.55
2022-10-06T10:28:48.130Z,57.96
2022-10-06T10:32:50.353Z,57.42
2022-10-06T10:35:53.034Z,58.32
2022-10-06T10:38:55.122Z,57.89
2022-10-06T10:41:57.195Z,58.97
2022-10-06T10:45:05.991Z,59.86
2022-10-06T10:48:15.842Z,59.37
2022-10-06T10:51:57.695Z,60.25
2022-10-06T10:55:30.356Z,61.54
2022-10-06T10:58:43.044Z,62.16
2022-10-06T11:02:13.203Z,61.57
2022-10-06T11:05:43.079Z,60.36
2022-10-06T11:09:10.154Z,59.24
2022-10-06T11:12:36.444Z,60.24
2022-10-06T11:16:18.120Z,61.74
2022-10-06T11:19:52.851Z,61.91
2022-10-06T11:23:14.967Z,61.74
2022-10-06T11:26:54.091Z,58.39
2022-10-06T11:30:15.843Z,58.67
2022-10-06T11:33:21.070Z,57.08
2022-10-06T11:37:02.667Z,56.87
2022-10-06T11:40:17.427Z,56.81
2022-10-06T11:44:00.526Z,59.25
2022-10-06T11:47:07.418Z,58.50
2022-10-06T11:50:38.993Z,60.55
2022-10-06T11:53:41.313Z,57.08
2022-10-06T11:56:43.617Z,57.75
2022-10-06T11:59:45.650Z,56.53
2022-10-06T12:02:48.014Z,56.74
2022-10-06T12:05:56.247Z,55.90
2022-10-06T12:08:59.023Z,55.03
2022-10-06T12:12:19.687Z,56.37
2022-10-06T12:19:19.459Z,59.93
2022-10-06T12:22:31.927Z,60.44
2022-10-06T12:26:21.723Z,61.08
2022-10-06T12:30:00.924Z,59.70
2022-10-06T12:33:05.767Z,60.69
2022-10-06T12:36:29.709Z,61.64
2022-10-06T12:39:31.850Z,62.39
2022-10-06T12:42:34.424Z,63.09
2022-10-06T12:45:36.479Z,58.94
2022-10-06T12:49:03.334Z,59.64
2022-10-06T12:52:14.555Z,59.80
2022-10-06T12:56:00.608Z,59.89
2022-10-06T12:59:34.918Z,58.70
2022-10-06T13:02:37.045Z,60.41
2022-10-06T13:05:39.297Z,59.46
2022-10-06T13:08:41.777Z,60.27
2022-10-06T13:11:43.803Z,60.98
2022-10-06T13:14:47.360Z,60.63
2022-10-06T13:18:22.062Z,59.77
2022-10-06T13:21:24.310Z,61.27
2022-10-06T13:24:26.965Z,61.29
2022-10-06T13:27:29.084Z,61.07
2022-10-06T13:30:37.678Z,61.97
2022-10-06T13:33:43.506Z,62.21
2022-10-06T13:36:49.424Z,62.05
2022-10-06T13:39:51.620Z,62.34
2022-10-06T13:42:55.933Z,63.01
2022-10-06T13:45:58.135Z,63.54
2022-10-06T13:49:16.145Z,63.68
2022-10-06T13:52:34.864Z,63.26
2022-10-06T13:55:36.909Z,63.36
2022-10-06T13:58:38.948Z,64.05
2022-10-06T14:01:41.100Z,63.70
2022-10-06T14:04:43.286Z,62.43
2022-10-06T14:07:45.443Z,62.48
2022-10-06T14:10:55.238Z,62.29
2022-10-06T14:14:00.476Z,62.93
2022-10-06T14:17:02.607Z,62.74
2022-10-06T14:20:23.956Z,64.56
2022-10-06T14:23:33.648Z,64.21
2022-10-06T14:26:36.216Z,65.13
2022-10-06T14:29:41.251Z,64.96
2022-10-06T14:32:43.307Z,65.94
2022-10-06T14:35:45.479Z,67.06
2022-10-06T14:38:50.430Z,68.58
2022-10-06T14:41:52.717Z,68.78
2022-10-06T14:44:54.818Z,69.60
2022-10-06T14:47:57.543Z,69.33
2022-10-06T14:51:03.907Z,69.80
2022-10-06T14:54:08.350Z,68.85
2022-10-06T14:57:10.656Z,69.28
2022-10-06T15:00:14.869Z,70.00
2022-10-06T15:03:17.118Z,69.84
2022-10-06T15:06:37.902Z,69.06
2022-10-06T15:09:39.966Z,69.78
2022-10-06T15:12:42.026Z,70.02
2022-10-06T15:15:47.434Z,71.46
2022-10-06T15:18:52.383Z,71.99
2022-10-06T15:21:54.538Z,72.78
2022-10-06T15:24:56.756Z,74.37
2022-10-06T15:28:18.754Z,74.51
2022-10-06T15:31:24.898Z,74.63
2022-10-06T15:34:28.747Z,73.58
2022-10-06T15:37:30.987Z,74.27
2022-10-06T15:40:33.061Z,74.94
2022-10-06T15:43:53.750Z,74.76
2022-10-06T15:46:56.293Z,75.36
2022-10-06T15:49:58.462Z,75.87
2022-10-06T15:53:00.546Z,78.69
2022-10-06T15:56:02.650Z,79.07
2022-10-06T15:59:05.962Z,79.47
2022-10-06T16:02:14.695Z,79.19
2022-10-06T16:05:49.544Z,79.02
2022-10-06T16:08:51.591Z,78.06
2022-10-06T16:11:54.187Z,77.44
2022-10-06T16:14:56.258Z,77.90
2022-10-06T16:17:58.479Z,78.90
2022-10-06T16:21:00.742Z,79.84
2022-10-06T16:24:03.073Z,79.54
2022-10-06T16:27:05.645Z,80.67
2022-10-06T16:30:08.823Z,81.17
2022-10-06T16:33:10.989Z,80.72
2022-10-06T16:36:14.734Z,79.95
2022-10-06T16:39:21.909Z,80.05
2022-10-06T16:42:24.686Z,80.02
2022-10-06T16:45:26.802Z,80.70
2022-10-06T16:48:34.104Z,80.88
2022-10-06T16:51:38.259Z,80.81
2022-10-06T16:54:40.389Z,80.80
2022-10-06T16:57:42.445Z,80.85
2022-10-06T17:00:44.562Z,82.12
2022-10-06T17:03:46.719Z,82.09
2022-10-06T17:06:53.727Z,82.74
2022-10-06T17:10:19.039Z,83.65
2022-10-06T17:13:18.091Z,84.41
2022-10-06T17:16:24.816Z,84.38
2022-10-06T17:19:29.053Z,84.40
2022-10-06T17:22:31.387Z,83.82
2022-10-06T17:25:33.904Z,83.34
2022-10-06T17:28:36.547Z,84.34
2022-10-06T17:31:40.705Z,84.13
2022-10-06T17:34:42.923Z,83.82
2022-10-06T17:37:45.129Z,84.73
2022-10-06T17:40:47.206Z,84.50
2022-10-06T17:43:50.399Z,84.65
2022-10-06T17:46:57.379Z,84.61
2022-10-06T17:50:00.531Z,84.54
2022-10-06T17:53:02.652Z,83.94
2022-10-06T17:56:09.255Z,84.06
2022-10-06T17:59:19.002Z,84.82
2022-10-06T18:02:21.180Z,84.57
2022-10-06T18:05:24.060Z,84.13
2022-10-06T18:08:27.151Z,84.17
2022-10-06T18:11:33.194Z,83.28
2022-10-06T18:14:35.326Z,81.38
2022-10-06T18:17:37.412Z,81.71
2022-10-06T18:20:41.231Z,81.15
2022-10-06T18:23:43.554Z,81.34
2022-10-06T18:26:48.205Z,81.35
2022-10-06T18:29:50.331Z,81.66
2022-10-06T18:35:19.063Z,81.32
2022-10-06T18:36:15.529Z,80.95
2022-10-06T18:39:17.799Z,81.35
2022-10-06T18:42:20.130Z,81.50
2022-10-06T18:45:40.980Z,81.23
2022-10-06T18:48:55.374Z,81.35
2022-10-06T18:51:58.427Z,81.03
2022-10-06T18:55:00.792Z,80.82
2022-10-06T18:58:04.582Z,79.99
2022-10-06T19:01:07.450Z,80.55
2022-10-06T19:04:10.602Z,81.36
2022-10-06T19:07:12.725Z,80.48
2022-10-06T19:10:14.834Z,80.73
2022-10-06T19:13:17.010Z,80.43
2022-10-06T19:16:20.509Z,79.60
2022-10-06T19:19:22.975Z,79.94
2022-10-06T19:22:25.204Z,79.59
2022-10-06T19:25:27.257Z,79.54
2022-10-06T19:28:31.526Z,78.55
2022-10-06T19:31:34.934Z,79.27
2022-10-06T19:34:37.392Z,78.76
2022-10-06T19:37:39.509Z,78.04
2022-10-06T19:40:41.599Z,78.86
2022-10-06T19:43:43.796Z,79.36
2022-10-06T19:46:45.832Z,79.28
2022-10-06T19:49:47.875Z,78.06
2022-10-06T19:52:51.693Z,78.83
2022-10-06T19:56:01.486Z,80.13
2022-10-06T19:59:04.050Z,79.61
2022-10-06T20:02:10.203Z,79.63
2022-10-06T20:05:14.396Z,79.43
2022-10-06T20:08:16.462Z,79.68
2022-10-06T20:11:21.222Z,80.14
2022-10-06T20:14:24.083Z,80.14
2022-10-06T20:17:26.175Z,78.60
2022-10-06T20:20:28.475Z,78.62
2022-10-06T20:23:31.891Z,78.07
2022-10-06T20:26:37.839Z,77.98
2022-10-06T20:29:39.876Z,77.60
2022-10-06T20:32:41.990Z,77.10
2022-10-06T20:35:44.122Z,77.86
2022-10-06T20:39:04.731Z,78.12
2022-10-06T20:42:10.574Z,78.13
2022-10-06T20:45:16.019Z,78.88
2022-10-06T20:48:18.355Z,78.09
2022-10-06T20:51:23.138Z,79.00
2022-10-06T20:54:34.876Z,77.99
2022-10-06T20:57:37.147Z,78.01
2022-10-06T21:00:39.269Z,78.28
2022-10-06T21:03:49.126Z,77.60
2022-10-06T21:06:51.158Z,76.88
2022-10-06T21:09:53.205Z,77.36
2022-10-06T21:12:55.829Z,77.30
2022-10-06T21:16:01.421Z,77.43
2022-10-06T21:19:05.267Z,77.83
2022-10-06T21:22:07.357Z,76.76
2022-10-06T21:25:09.696Z,78.02
2022-10-06T21:28:11.809Z,76.91
2022-10-06T21:31:16.049Z,77.87
2022-10-06T21:34:18.167Z,77.96
2022-10-06T21:37:20.193Z,77.92
2022-10-06T21:40:22.360Z,77.16
2022-10-06T21:43:24.971Z,77.15
2022-10-06T21:46:45.589Z,75.82
2022-10-06T21:49:47.705Z,76.79
2022-10-06T21:52:49.794Z,76.03
2022-10-06T21:55:54.070Z,76.50
2022-10-06T21:58:56.529Z,76.54
2022-10-06T22:01:59.489Z,75.92
2022-10-06T22:05:01.677Z,75.19
2022-10-06T22:08:03.740Z,75.53
2022-10-06T22:11:27.739Z,75.44
2022-10-06T22:14:29.807Z,75.62
2022-10-06T22:17:31.953Z,76.05
2022-10-06T22:20:35.006Z,76.23
2022-10-06T22:23:37.039Z,76.17
2022-10-06T22:26:40.147Z,75.63
2022-10-06T22:29:42.818Z,76.39
2022-10-06T22:32:44.879Z,76.33
2022-10-06T22:35:51.219Z,75.84
2022-10-06T22:38:53.525Z,75.54
2022-10-06T22:41:55.674Z,75.69
2022-10-06T22:44:57.705Z,75.79
2022-10-06T22:47:59.738Z,75.42
2022-10-06T22:51:01.822Z,74.54
2022-10-06T22:54:04.197Z,74.30
2022-10-06T22:57:07.030Z,73.83
2022-10-06T23:00:09.853Z,73.91
2022-10-06T23:03:11.997Z,73.78
2022-10-06T23:06:15.773Z,73.50
2022-10-06T23:09:17.836Z,73.10
2022-10-06T23:12:19.914Z,72.74
2022-10-06T23:15:22.126Z,72.77
2022-10-06T23:18:24.173Z,72.83
2022-10-06T23:21:27.577Z,72.59
2022-10-06T23:24:29.958Z,72.36
2022-10-06T23:27:32.005Z,72.15
2022-10-06T23:30:37.281Z,71.97
2022-10-06T23:33:39.456Z,71.52
2022-10-06T23:36:41.496Z,71.78
2022-10-06T23:39:43.537Z,71.55
2022-10-06T23:42:45.569Z,70.95
2022-10-06T23:45:47.780Z,71.58
2022-10-06T23:48:49.905Z,71.73
2022-10-06T23:51:51.949Z,71.42
2022-10-06T23:54:53.996Z,71.22
2022-10-06T23:57:56.049Z,70.85
